createdAt,value
2022-12-01T05:03:36.424Z,19.90
2022-12-01T05:06:07.631Z,19.58
2022-12-01T05:08:34.314Z,19.92
2022-12-01T05:11:01.032Z,19.63
2022-12-01T05:16:03.660Z,19.73
2022-12-01T05:18:30.147Z,18.88
2022-12-01T05:20:59.547Z,18.13
2022-12-01T05:23:30.191Z,19.33
2022-12-01T05:25:56.874Z,19.33
2022-12-01T05:28:24.057Z,17.50
2022-12-01T05:30:50.713Z,17.85
2022-12-01T05:33:17.152Z,19.45
2022-12-01T05:35:43.802Z,18.13
2022-12-01T05:38:10.220Z,18.50
2022-12-01T05:40:36.937Z,18.60
2022-12-01T05:43:03.932Z,19.58
2022-12-01T05:45:30.450Z,18.42
2022-12-01T05:48:00.478Z,19.17
2022-12-01T05:50:27.892Z,19.23
2022-12-01T05:52:54.446Z,17.92
2022-12-01T05:55:21.231Z,20.20
2022-12-01T05:57:47.673Z,19.90
2022-12-01T06:00:14.469Z,19.60
2022-12-01T06:02:41.568Z,20.42
2022-12-01T06:05:08.669Z,19.77
2022-12-01T06:07:36.636Z,28.33
2022-12-01T06:10:03.344Z,20.65
2022-12-01T06:12:29.849Z,20.35
2022-12-01T06:14:56.339Z,21.73
2022-12-01T06:17:22.752Z,22.25
2022-12-01T06:19:49.396Z,21.38
2022-12-01T06:22:16.017Z,20.90
2022-12-01T06:24:42.488Z,20.85
2022-12-01T06:27:08.993Z,21.13
2022-12-01T06:29:42.110Z,21.60
2022-12-01T06:32:09.265Z,21.27
2022-12-01T06:34:35.884Z,22.08
2022-12-01T06:37:02.255Z,22.92
2022-12-01T06:39:31.490Z,22.13
2022-12-01T06:41:57.996Z,19.83
2022-12-01T06:44:24.356Z,22.40
2022-12-01T06:46:53.863Z,20.67
2022-12-01T06:49:20.296Z,23.45
2022-12-01T06:51:46.722Z,23.83
2022-12-01T06:54:13.208Z,22.58
2022-12-01T06:56:39.644Z,22.85
2022-12-01T06:59:06.562Z,22.70
2022-12-01T07:01:33.434Z,22.52
2022-12-01T07:03:59.933Z,21.45
2022-12-01T07:06:26.433Z,19.92
2022-12-01T07:08:52.886Z,18.98
2022-12-01T07:11:19.330Z,19.80
2022-12-01T07:13:45.744Z,19.17
2022-12-01T07:16:12.601Z,19.60
2022-12-01T07:18:40.502Z,17.95
2022-12-01T07:21:08.130Z,20.27
2022-12-01T07:23:35.054Z,19.85
2022-12-01T07:26:02.318Z,19.83
2022-12-01T07:28:29.126Z,20.67
2022-12-01T07:31:01.138Z,20.67
2022-12-01T07:33:30.801Z,20.92
2022-12-01T07:35:57.477Z,20.83
2022-12-01T07:38:23.870Z,19.10
2022-12-01T07:40:50.296Z,19.33
2022-12-01T07:43:16.727Z,18.33
2022-12-01T07:45:43.238Z,19.90
2022-12-01T07:48:09.827Z,20.30
2022-12-01T07:50:36.201Z,19.80
2022-12-01T07:53:02.646Z,20.83
2022-12-01T07:55:29.085Z,21.70
2022-12-01T07:57:55.503Z,21.83
2022-12-01T08:00:22.050Z,22.30
2022-12-01T08:02:49.112Z,20.77
2022-12-01T08:05:15.675Z,21.98
2022-12-01T08:07:42.264Z,23.58
2022-12-01T08:10:09.029Z,22.52
2022-12-01T08:12:35.456Z,21.33
2022-12-01T08:15:02.394Z,21.25
2022-12-01T08:17:28.861Z,22.55
2022-12-01T08:19:55.226Z,21.65
2022-12-01T08:22:21.680Z,20.02
2022-12-01T08:24:48.148Z,20.90
2022-12-01T08:27:14.634Z,20.10
2022-12-01T08:29:41.071Z,20.05
2022-12-01T08:32:07.557Z,18.88
2022-12-01T08:34:35.496Z,20.23
2022-12-01T08:37:01.959Z,20.08
2022-12-01T08:39:30.421Z,20.17
2022-12-01T08:41:56.814Z,20.50
2022-12-01T08:44:23.280Z,19.67
2022-12-01T08:46:49.990Z,19.92
2022-12-01T08:49:16.452Z,19.73
2022-12-01T08:51:42.843Z,19.70
2022-12-01T08:54:10.513Z,20.33
2022-12-01T08:56:38.489Z,21.58
2022-12-01T08:59:04.977Z,20.70
2022-12-01T09:01:32.859Z,19.90
2022-12-01T09:04:08.177Z,20.48
2022-12-01T09:06:37.613Z,21.20
2022-12-01T09:09:04.125Z,20.13
2022-12-01T09:11:30.646Z,19.55
2022-12-01T09:13:58.838Z,21.67
2022-12-01T09:16:25.332Z,19.85
2022-12-01T09:18:51.822Z,21.15
2022-12-01T09:21:22.623Z,19.38
2022-12-01T09:23:49.183Z,19.73
2022-12-01T09:26:18.659Z,19.75
2022-12-01T09:28:46.070Z,19.10
2022-12-01T09:31:13.140Z,19.08
2022-12-01T09:33:39.947Z,19.05
2022-12-01T09:36:07.289Z,20.40
2022-12-01T09:38:34.743Z,19.42
2022-12-01T09:41:02.973Z,18.48
2022-12-01T09:43:33.672Z,19.70
2022-12-01T09:46:02.697Z,17.92
2022-12-01T09:48:31.864Z,17.90
2022-12-01T09:50:58.386Z,18.70
2022-12-01T09:53:25.576Z,18.30
2022-12-01T09:55:52.697Z,19.00
2022-12-01T09:58:24.888Z,19.30
2022-12-01T10:00:52.214Z,19.63
2022-12-01T10:03:21.386Z,18.27
2022-12-01T10:06:28.075Z,17.30
2022-12-01T10:09:02.423Z,18.63
2022-12-01T10:11:31.917Z,18.00
2022-12-01T10:13:58.682Z,19.20
2022-12-01T10:16:30.803Z,19.58
2022-12-01T10:19:01.166Z,19.20
2022-12-01T10:21:35.500Z,18.50
2022-12-01T10:24:14.103Z,18.48
2022-12-01T10:26:40.439Z,18.48
2022-12-01T10:29:16.399Z,17.60
2022-12-01T10:31:45.790Z,18.23
2022-12-01T10:34:16.268Z,18.08
2022-12-01T10:36:42.697Z,17.95
2022-12-01T10:39:15.775Z,17.40
2022-12-01T10:41:42.172Z,17.63
2022-12-01T10:44:09.401Z,16.88
2022-12-01T10:46:35.739Z,17.05
2022-12-01T10:49:08.013Z,17.65
2022-12-01T10:51:45.893Z,17.88
2022-12-01T10:54:12.387Z,18.05
2022-12-01T10:56:40.696Z,18.52
2022-12-01T10:59:22.220Z,18.60
2022-12-01T11:01:49.203Z,18.38
2022-12-01T11:04:29.508Z,20.45
2022-12-01T11:06:56.026Z,20.98
2022-12-01T11:09:26.523Z,19.65
2022-12-01T11:11:57.495Z,19.60
2022-12-01T11:14:25.414Z,18.63
2022-12-01T11:16:53.907Z,20.27
2022-12-01T11:19:27.301Z,21.38
2022-12-01T11:21:55.547Z,21.10
2022-12-01T11:24:29.589Z,20.35
2022-12-01T11:26:59.218Z,21.30
2022-12-01T11:29:25.539Z,21.80
2022-12-01T11:31:53.138Z,21.75
2022-12-01T11:34:27.443Z,22.38
2022-12-01T11:36:55.678Z,22.20
2022-12-01T11:39:36.150Z,23.67
2022-12-01T11:42:04.442Z,23.58
2022-12-01T11:47:24.380Z,22.92
2022-12-01T11:49:58.616Z,24.88
2022-12-01T11:52:31.196Z,24.60
2022-12-01T11:54:58.723Z,24.25
2022-12-01T11:57:34.063Z,23.80
2022-12-01T12:00:00.741Z,23.88
2022-12-01T12:02:34.386Z,23.30
2022-12-01T12:05:13.111Z,25.10
2022-12-01T12:07:57.888Z,25.02
2022-12-01T12:10:35.533Z,22.73
2022-12-01T12:13:16.969Z,24.50
2022-12-01T12:15:46.483Z,23.88
2022-12-01T12:18:31.685Z,25.05
2022-12-01T12:21:01.059Z,24.58
2022-12-01T12:23:42.759Z,26.05
2022-12-01T12:26:19.794Z,24.65
2022-12-01T12:28:59.492Z,23.25
2022-12-01T12:31:29.031Z,22.33
2022-12-01T12:34:02.963Z,22.15
2022-12-01T12:36:43.991Z,24.00
2022-12-01T12:39:25.373Z,24.48
2022-12-01T12:41:53.377Z,25.60
2022-12-01T12:44:37.339Z,25.83
2022-12-01T12:47:26.692Z,23.92
2022-12-01T12:50:03.119Z,24.52
2022-12-01T12:52:33.227Z,23.13
2022-12-01T12:55:12.772Z,24.55
2022-12-01T12:57:40.764Z,22.33
2022-12-01T13:00:17.409Z,23.10
2022-12-01T13:02:43.783Z,22.10
2022-12-01T13:05:28.314Z,22.92
2022-12-01T13:08:13.392Z,22.52
2022-12-01T13:10:48.130Z,22.83
2022-12-01T13:13:33.206Z,22.92
2022-12-01T13:16:02.428Z,21.90
2022-12-01T13:18:40.824Z,21.55
2022-12-01T13:21:07.349Z,21.05
2022-12-01T13:23:34.678Z,21.52
2022-12-01T13:26:01.588Z,20.10
2022-12-01T13:28:29.948Z,19.60
2022-12-01T13:31:00.801Z,19.33
2022-12-01T13:33:27.444Z,20.42
2022-12-01T13:36:15.446Z,19.48
2022-12-01T13:38:41.026Z,19.60
2022-12-01T13:41:19.575Z,21.55
2022-12-01T13:44:07.583Z,19.35
2022-12-01T13:46:37.020Z,18.92
2022-12-01T13:49:03.691Z,20.92
2022-12-01T13:51:50.049Z,18.90
2022-12-01T13:54:30.039Z,18.75
2022-12-01T13:57:04.108Z,18.92
2022-12-01T14:00:03.263Z,19.98
2022-12-01T14:02:31.050Z,18.67
2022-12-01T14:05:30.021Z,19.85
2022-12-01T14:07:57.295Z,18.00
2022-12-01T14:10:25.294Z,17.55
2022-12-01T14:12:53.007Z,18.75
2022-12-01T14:15:33.664Z,17.55
2022-12-01T14:18:02.479Z,16.63
2022-12-01T14:20:30.893Z,17.45
2022-12-01T14:23:21.316Z,15.77
2022-12-01T14:26:09.575Z,17.00
2022-12-01T14:28:54.673Z,15.75
2022-12-01T14:31:21.905Z,16.83
2022-12-01T14:33:58.737Z,15.90
2022-12-01T14:36:43.902Z,14.75
2022-12-01T14:39:17.771Z,14.65
2022-12-01T14:41:52.027Z,14.73
2022-12-01T14:44:24.134Z,14.43
2022-12-01T14:46:50.575Z,15.13
2022-12-01T14:49:22.583Z,12.95
2022-12-01T14:51:52.676Z,13.90
2022-12-01T14:54:23.480Z,13.27
2022-12-01T14:56:52.046Z,14.50
2022-12-01T14:59:26.375Z,13.40
2022-12-01T15:01:54.917Z,14.73
2022-12-01T15:04:21.355Z,14.18
2022-12-01T15:06:53.170Z,13.93
2022-12-01T15:09:36.271Z,14.80
2022-12-01T15:12:08.844Z,14.20
2022-12-01T15:14:37.879Z,15.73
2022-12-01T15:17:05.611Z,14.98
2022-12-01T15:19:33.957Z,15.95
2022-12-01T15:22:03.590Z,15.98
2022-12-01T15:24:30.963Z,16.95
2022-12-01T15:27:03.515Z,16.42
2022-12-01T15:29:31.869Z,16.20
2022-12-01T15:32:02.513Z,17.08
2022-12-01T15:34:33.521Z,17.23
2022-12-01T15:37:02.841Z,16.77
2022-12-01T15:39:36.965Z,16.73
2022-12-01T15:42:03.601Z,16.88
2022-12-01T15:44:34.378Z,16.15
2022-12-01T15:47:20.651Z,18.65
2022-12-01T15:49:49.936Z,17.92
2022-12-01T15:52:16.417Z,17.90
2022-12-01T15:54:46.867Z,16.83
2022-12-01T15:57:16.822Z,16.95
2022-12-01T15:59:45.120Z,17.30
2022-12-01T16:02:20.827Z,18.02
2022-12-01T16:04:48.670Z,19.02
2022-12-01T16:07:15.542Z,18.48
2022-12-01T16:09:43.581Z,18.85
2022-12-01T16:12:12.742Z,18.00
2022-12-01T16:14:49.216Z,27.63
2022-12-01T16:17:17.067Z,19.83
2022-12-01T16:19:45.383Z,20.35
2022-12-01T16:22:11.701Z,19.85
2022-12-01T16:24:43.727Z,21.20
2022-12-01T16:27:23.762Z,23.63
2022-12-01T16:29:54.466Z,19.48
2022-12-01T16:32:23.178Z,22.75
2022-12-01T16:34:50.791Z,21.30
2022-12-01T16:37:17.459Z,22.65
2022-12-01T16:39:43.839Z,27.77
2022-12-01T16:42:17.910Z,24.63
2022-12-01T16:44:45.636Z,24.20
2022-12-01T16:47:24.882Z,22.98
2022-12-01T16:49:51.960Z,28.13
2022-12-01T16:55:06.477Z,35.22
2022-12-01T16:57:32.860Z,25.90
2022-12-01T16:59:59.297Z,23.23
2022-12-01T17:02:25.827Z,23.88
2022-12-01T17:04:52.476Z,23.45
2022-12-01T17:07:19.042Z,24.90
2022-12-01T17:09:45.397Z,29.20
2022-12-01T17:12:11.776Z,24.02
2022-12-01T17:19:54.519Z,30.70
2022-12-01T17:22:20.980Z,28.48
2022-12-01T17:24:47.707Z,26.33
2022-12-01T17:27:14.172Z,24.95
2022-12-01T17:29:45.875Z,25.33
2022-12-01T17:32:13.805Z,23.95
2022-12-01T17:34:40.383Z,22.85
2022-12-01T17:37:06.736Z,24.35
2022-12-01T17:39:33.159Z,25.40
2022-12-01T17:41:59.506Z,25.83
2022-12-01T17:44:25.870Z,31.10
2022-12-01T17:46:52.316Z,33.28
2022-12-01T17:49:18.884Z,25.38
2022-12-01T17:51:45.307Z,25.73
2022-12-01T17:54:11.701Z,29.13
2022-12-01T17:56:38.143Z,28.02
2022-12-01T17:59:04.549Z,28.00
2022-12-01T18:01:31.137Z,29.13
2022-12-01T18:03:58.391Z,27.58
2022-12-01T18:06:25.612Z,26.27
2022-12-01T18:08:52.726Z,25.80
2022-12-01T18:11:19.776Z,25.27
2022-12-01T18:13:47.123Z,25.40
2022-12-01T18:16:15.113Z,24.77
2022-12-01T18:18:41.577Z,24.50
2022-12-01T18:21:11.937Z,24.40
2022-12-01T18:23:38.528Z,25.60
2022-12-01T18:26:08.643Z,24.00
2022-12-01T18:28:38.883Z,22.10
2022-12-01T18:31:06.558Z,22.45
2022-12-01T18:33:33.538Z,22.98
2022-12-01T18:36:00.253Z,22.17
2022-12-01T18:38:28.106Z,22.77
2022-12-01T18:41:01.457Z,27.02
2022-12-01T18:43:31.637Z,23.55
2022-12-01T18:45:58.512Z,22.60
2022-12-01T18:48:25.030Z,24.08
2022-12-01T18:50:56.392Z,24.42
2022-12-01T18:53:25.571Z,26.90
2022-12-01T18:55:51.965Z,25.08
2022-12-01T18:58:18.386Z,24.92
2022-12-01T19:00:44.872Z,26.40
2022-12-01T19:03:11.317Z,23.35
2022-12-01T19:05:38.921Z,24.30
2022-12-01T19:08:05.614Z,24.08
2022-12-01T19:10:32.522Z,24.25
2022-12-01T19:12:58.982Z,24.77
2022-12-01T19:15:25.542Z,26.55
2022-12-01T19:17:51.941Z,25.58
2022-12-01T19:20:18.272Z,24.75
2022-12-01T19:22:44.648Z,28.98
2022-12-01T19:25:12.476Z,26.27
2022-12-01T19:27:39.441Z,26.27
2022-12-01T19:30:06.263Z,24.50
2022-12-01T19:32:33.592Z,26.35
2022-12-01T19:34:59.941Z,24.88
2022-12-01T19:37:26.313Z,23.50
2022-12-01T19:39:52.740Z,24.25
2022-12-01T19:42:19.088Z,25.25
2022-12-01T19:44:45.627Z,24.05
2022-12-01T19:47:12.002Z,24.67
2022-12-01T19:49:38.347Z,27.50
2022-12-01T19:52:08.005Z,24.88
2022-12-01T19:54:35.390Z,23.55
2022-12-01T19:57:01.749Z,23.40
2022-12-01T19:59:28.172Z,24.60
2022-12-01T20:01:54.578Z,24.55
2022-12-01T20:04:20.992Z,24.83
2022-12-01T20:06:57.255Z,25.98
2022-12-01T20:09:23.725Z,25.73
2022-12-01T20:11:50.324Z,27.33
2022-12-01T20:14:17.026Z,26.42
2022-12-01T20:16:43.608Z,25.85
2022-12-01T20:19:10.165Z,28.38
2022-12-01T20:21:39.323Z,26.17
2022-12-01T20:24:06.976Z,26.30
2022-12-01T20:26:38.024Z,24.98
2022-12-01T20:29:05.969Z,26.92
2022-12-01T20:31:33.004Z,25.83
2022-12-01T20:34:00.935Z,26.20
2022-12-01T20:36:27.688Z,28.88
2022-12-01T20:38:54.064Z,30.02
2022-12-01T20:41:20.792Z,25.98
2022-12-01T20:43:47.401Z,26.98
2022-12-01T20:46:14.399Z,27.17
2022-12-01T20:48:41.065Z,25.13
2022-12-01T20:51:08.121Z,38.72
2022-12-01T20:53:35.436Z,27.52
2022-12-01T20:56:06.990Z,23.77
2022-12-01T20:58:37.486Z,24.90
2022-12-01T21:01:11.781Z,25.90
2022-12-01T21:03:39.283Z,22.60
2022-12-01T21:06:06.138Z,24.83
2022-12-01T21:08:32.903Z,24.08
2022-12-01T21:11:03.447Z,23.73
2022-12-01T21:13:41.938Z,26.20
2022-12-01T21:16:14.246Z,26.55
2022-12-01T21:18:40.816Z,25.23
2022-12-01T21:21:16.884Z,26.20
2022-12-01T21:23:43.229Z,25.98
2022-12-01T21:26:14.009Z,25.48
2022-12-01T21:28:40.642Z,25.08
2022-12-01T21:31:14.736Z,26.33
2022-12-01T21:33:41.894Z,27.30
2022-12-01T21:36:19.182Z,25.92
2022-12-01T21:38:45.942Z,25.90
2022-12-01T21:41:32.572Z,26.35
2022-12-01T21:44:07.694Z,25.90
2022-12-01T21:46:35.163Z,25.55
2022-12-01T21:49:01.609Z,26.25
2022-12-01T21:51:27.956Z,25.20
2022-12-01T21:53:55.984Z,24.50
2022-12-01T21:56:24.296Z,27.20
2022-12-01T21:58:51.748Z,25.80
2022-12-01T22:01:29.065Z,25.95
2022-12-01T22:04:01.799Z,26.10
2022-12-01T22:06:31.878Z,25.35
2022-12-01T22:09:00.177Z,25.10
2022-12-01T22:11:27.909Z,25.63
2022-12-01T22:14:15.412Z,25.30
2022-12-01T22:16:59.249Z,25.33
2022-12-01T22:19:32.995Z,24.40
2022-12-01T22:22:22.353Z,25.80
2022-12-01T22:24:50.787Z,26.70
2022-12-01T22:27:28.478Z,24.30
2022-12-01T22:30:07.418Z,25.40
2022-12-01T22:32:37.277Z,25.08
2022-12-01T22:35:22.617Z,25.63
2022-12-01T22:37:50.463Z,25.35
2022-12-01T22:40:35.755Z,24.23
2022-12-01T22:43:16.415Z,26.27
2022-12-01T22:45:48.553Z,25.45
2022-12-01T22:48:27.119Z,25.20
2022-12-01T22:50:58.814Z,25.35
2022-12-01T22:53:30.327Z,26.92
2022-12-01T22:55:59.995Z,24.98
2022-12-01T22:58:26.278Z,23.30
2022-12-01T23:00:52.836Z,22.15
2022-12-01T23:03:19.293Z,21.13
2022-12-01T23:05:45.727Z,21.17
2022-12-01T23:08:16.699Z,20.55
2022-12-01T23:10:43.199Z,20.55
2022-12-01T23:13:13.907Z,19.95
2022-12-01T23:15:47.971Z,19.45
2022-12-01T23:18:20.492Z,19.60
2022-12-01T23:20:48.166Z,18.08
2022-12-01T23:23:15.908Z,19.85
2022-12-01T23:25:42.794Z,17.55
2022-12-01T23:28:10.172Z,18.20
2022-12-01T23:30:38.788Z,17.25
2022-12-01T23:33:11.328Z,17.75
2022-12-01T23:35:44.105Z,16.73
2022-12-01T23:38:15.471Z,15.90
2022-12-01T23:40:41.933Z,15.05
2022-12-01T23:43:20.600Z,16.27
2022-12-01T23:45:48.021Z,15.25
2022-12-01T23:48:18.056Z,16.20
2022-12-01T23:50:44.500Z,16.20
2022-12-01T23:53:19.381Z,16.42
2022-12-01T23:55:45.795Z,15.48
2022-12-01T23:58:13.540Z,15.48
